Time;durP1;ratioP1;P1;durP2;ratioP2;P2;SDS_P1;SDS_P2;PMS_P1;PMS_P2;Temp;Humidity;BMP_temperature;BMP_pressure;BME280_temperature;BME280_humidity;BME280_pressure;Samples;Min_cycle;Max_cycle;Signal;HPM_P1;HPM_P2
2022/09/26 00:01:04;;;;;;;;;;;11.30;99.90;;;;;;5081639;28;19946;-69
2022/09/26 00:03:30;;;;;;;;;;;11.20;99.90;;;;;;5083407;28;19924;-70
2022/09/26 00:05:59;;;;;;;;;;;11.20;99.90;;;;;;5084987;28;20061;-70
2022/09/26 00:08:26;;;;;;;;;;;11.20;99.90;;;;;;5077780;28;19924;-70
2022/09/26 00:10:57;;;;;;;;;;;11.20;99.90;;;;;;5092902;28;19924;-71
2022/09/26 00:13:24;;;;;;;;;;;11.20;99.90;;;;;;5082909;28;19924;-71
2022/09/26 00:15:51;;;;;;;;;;;11.20;99.90;;;;;;5084426;28;20020;-70
2022/09/26 00:18:17;;;;;;;;;;;11.20;99.90;;;;;;5086682;28;19924;-71
2022/09/26 00:20:44;;;;;;;;;;;11.20;99.90;;;;;;5089415;28;19924;-70
2022/09/26 00:23:11;;;;;;;;;;;11.10;99.90;;;;;;5078674;28;20276;-70
2022/09/26 00:25:37;;;;;;;;;;;11.20;99.90;;;;;;5075744;28;19993;-71
2022/09/26 00:28:05;;;;;;;;;;;11.10;99.90;;;;;;5086965;28;19929;-71
2022/09/26 00:30:32;;;;;;;;;;;11.20;99.90;;;;;;5089480;28;19963;-70
2022/09/26 00:32:59;;;;;;;;;;;11.20;99.90;;;;;;5083357;28;19927;-71
2022/09/26 00:35:25;;;;;;;;;;;11.10;99.90;;;;;;5093836;28;19968;-70
2022/09/26 00:37:52;;;;;;;;;;;11.10;99.90;;;;;;5084548;28;19924;-71
2022/09/26 00:40:19;;;;;;;;;;;11.20;99.90;;;;;;5083143;28;20018;-71
2022/09/26 00:42:45;;;;;;;;;;;11.10;99.90;;;;;;5090476;28;19968;-70
2022/09/26 00:45:14;;;;;;;;;;;11.10;99.90;;;;;;5077135;28;20378;-70
2022/09/26 00:47:42;;;;;;;;;;;11.20;99.90;;;;;;5082383;28;19978;-70
2022/09/26 00:50:16;;;;;;;;;;;11.20;99.90;;;;;;5081681;28;19924;-71
2022/09/26 00:52:44;;;;;;;;;;;11.10;99.90;;;;;;5080005;28;19924;-71
2022/09/26 00:55:13;;;;;;;;;;;11.20;99.90;;;;;;5084088;28;19931;-70
2022/09/26 00:57:41;;;;;;;;;;;11.10;99.90;;;;;;5074389;28;19954;-70
2022/09/26 01:00:10;;;;;;;;;;;11.10;99.90;;;;;;5077601;28;19925;-70
2022/09/26 01:02:38;;;;;;;;;;;11.10;99.90;;;;;;5088097;28;19930;-70
2022/09/26 01:05:06;;;;;;;;;;;11.00;99.90;;;;;;5081458;28;20011;-70
2022/09/26 01:07:33;;;;;;;;;;;11.00;99.90;;;;;;5091171;28;20387;-70
2022/09/26 01:10:01;;;;;;;;;;;11.00;99.90;;;;;;5074747;28;19925;-70
2022/09/26 01:12:28;;;;;;;;;;;10.90;99.90;;;;;;5074138;28;20011;-70
2022/09/26 01:14:55;;;;;;;;;;;10.90;99.90;;;;;;5084009;28;19936;-71
2022/09/26 01:17:23;;;;;;;;;;;10.90;99.90;;;;;;5091740;28;19931;-71
2022/09/26 01:19:57;;;;;;;;;;;10.90;99.90;;;;;;5083749;28;19925;-71
2022/09/26 01:22:38;;;;;;;;;;;10.90;99.90;;;;;;5089826;28;19924;-70
2022/09/26 01:25:10;;;;;;;;;;;10.90;99.90;;;;;;5075035;28;20380;-70
2022/09/26 01:27:42;;;;;;;;;;;10.90;99.90;;;;;;5074110;28;19925;-70
2022/09/26 01:30:14;;;;;;;;;;;10.90;99.90;;;;;;5086828;28;19924;-70
2022/09/26 01:32:56;;;;;;;;;;;10.90;99.90;;;;;;5082364;28;20388;-70
2022/09/26 01:35:37;;;;;;;;;;;10.90;99.90;;;;;;5079991;28;19953;-70
2022/09/26 01:38:09;;;;;;;;;;;11.00;99.90;;;;;;5059204;28;19924;-70
2022/09/26 01:40:40;;;;;;;;;;;11.00;99.90;;;;;;5089162;28;20402;-70
2022/09/26 01:43:13;;;;;;;;;;;11.00;99.90;;;;;;5079730;28;19924;-70
2022/09/26 01:45:44;;;;;;;;;;;11.00;99.90;;;;;;5076520;28;19932;-70
2022/09/26 01:48:15;;;;;;;;;;;11.00;99.90;;;;;;5087162;28;19931;-70
2022/09/26 01:50:46;;;;;;;;;;;11.00;99.90;;;;;;5081499;28;19931;-70
2022/09/26 01:53:15;;;;;;;;;;;11.00;99.90;;;;;;5084125;28;19937;-70
2022/09/26 01:55:44;;;;;;;;;;;11.00;99.90;;;;;;5087359;28;20580;-71
2022/09/26 01:58:13;;;;;;;;;;;11.00;99.90;;;;;;5079167;28;19930;-70
2022/09/26 02:00:42;;;;;;;;;;;11.10;99.90;;;;;;5080226;28;19931;-70
2022/09/26 02:03:11;;;;;;;;;;;11.10;99.90;;;;;;5085104;28;19932;-70
2022/09/26 02:05:40;;;;;;;;;;;11.20;99.90;;;;;;5085399;28;19975;-70
2022/09/26 02:08:10;;;;;;;;;;;11.20;99.90;;;;;;5081036;28;19925;-70
2022/09/26 02:10:40;;;;;;;;;;;11.20;99.90;;;;;;5077824;28;19924;-70
2022/09/26 02:13:09;;;;;;;;;;;11.20;99.90;;;;;;5089970;28;20295;-69
2022/09/26 02:15:36;;;;;;;;;;;11.20;99.90;;;;;;5081473;28;19925;-72
2022/09/26 02:18:07;;;;;;;;;;;11.20;99.90;;;;;;5085072;28;19943;-71
2022/09/26 02:20:37;;;;;;;;;;;11.20;99.90;;;;;;5087826;28;19925;-70
2022/09/26 02:23:04;;;;;;;;;;;11.30;99.90;;;;;;5085531;28;20264;-71
2022/09/26 02:25:30;;;;;;;;;;;11.30;99.90;;;;;;5078017;28;19993;-70
2022/09/26 02:27:57;;;;;;;;;;;11.30;99.90;;;;;;5081802;28;20037;-70
2022/09/26 02:30:24;;;;;;;;;;;11.20;99.90;;;;;;5084296;28;19931;-70
2022/09/26 02:32:51;;;;;;;;;;;11.20;99.90;;;;;;5087137;28;19930;-71
2022/09/26 02:38:04;;;;;;;;;;;11.20;99.90;;;;;;5074825;28;20401;-71
2022/09/26 02:40:36;;;;;;;;;;;11.20;99.90;;;;;;5080131;28;19924;-70
2022/09/26 02:43:07;;;;;;;;;;;11.20;99.90;;;;;;5084621;28;19924;-70
2022/09/26 02:45:39;;;;;;;;;;;11.20;99.90;;;;;;5088906;28;19967;-69
2022/09/26 02:48:19;;;;;;;;;;;11.20;99.90;;;;;;5080428;28;20379;-68
2022/09/26 02:50:53;;;;;;;;;;;11.20;99.90;;;;;;5091334;28;19924;-71
2022/09/26 02:53:31;;;;;;;;;;;11.20;99.90;;;;;;5087016;28;19963;-70
2022/09/26 02:56:03;;;;;;;;;;;11.20;99.90;;;;;;5082392;28;19932;-70
2022/09/26 02:58:35;;;;;;;;;;;11.20;99.90;;;;;;5090456;28;19931;-71
2022/09/26 03:01:05;;;;;;;;;;;11.20;99.90;;;;;;5080418;28;20031;-70
2022/09/26 03:03:35;;;;;;;;;;;11.20;99.90;;;;;;5088318;28;19981;-70
2022/09/26 03:06:03;;;;;;;;;;;11.20;99.90;;;;;;5090480;28;19925;-71
2022/09/26 03:08:33;;;;;;;;;;;11.10;99.90;;;;;;5074872;28;19924;-71
2022/09/26 03:11:01;;;;;;;;;;;11.10;99.90;;;;;;5089403;28;19928;-71
2022/09/26 03:13:32;;;;;;;;;;;11.10;99.90;;;;;;5084937;28;20405;-71
2022/09/26 03:15:59;;;;;;;;;;;11.10;99.90;;;;;;5089340;28;19924;-71
2022/09/26 03:18:29;;;;;;;;;;;11.10;99.90;;;;;;5091841;28;19925;-71
2022/09/26 03:20:55;;;;;;;;;;;11.10;99.90;;;;;;5090589;28;20309;-70
2022/09/26 03:23:23;;;;;;;;;;;11.10;99.90;;;;;;5075530;28;20175;-69
2022/09/26 03:25:58;;;;;;;;;;;11.10;99.90;;;;;;5083641;28;20082;-71
2022/09/26 03:28:25;;;;;;;;;;;11.10;99.90;;;;;;5071205;28;19924;-71
2022/09/26 03:30:51;;;;;;;;;;;11.10;99.90;;;;;;5074417;28;20397;-71
2022/09/26 03:33:18;;;;;;;;;;;11.10;99.90;;;;;;5075403;28;20303;-70
2022/09/26 03:35:45;;;;;;;;;;;11.10;99.90;;;;;;5085534;28;20034;-71
2022/09/26 03:38:11;;;;;;;;;;;11.10;99.90;;;;;;5085050;28;19924;-71
2022/09/26 03:40:40;;;;;;;;;;;11.10;99.90;;;;;;5087965;28;19939;-70
2022/09/26 03:43:07;;;;;;;;;;;11.10;99.90;;;;;;5089848;28;19924;-70
2022/09/26 03:45:36;;;;;;;;;;;11.10;99.90;;;;;;5081742;28;19925;-70
2022/09/26 03:48:02;;;;;;;;;;;11.00;99.90;;;;;;5088352;28;19939;-69
2022/09/26 03:50:29;;;;;;;;;;;11.00;99.90;;;;;;5079471;28;20048;-71
2022/09/26 03:52:55;;;;;;;;;;;11.00;99.90;;;;;;5076582;28;19954;-71
2022/09/26 03:55:22;;;;;;;;;;;11.00;99.90;;;;;;5080185;28;19924;-69
2022/09/26 03:57:49;;;;;;;;;;;11.00;99.90;;;;;;5077462;28;20444;-69
2022/09/26 04:00:17;;;;;;;;;;;11.00;99.90;;;;;;5073408;28;20027;-70
2022/09/26 04:02:44;;;;;;;;;;;11.00;99.90;;;;;;5087370;28;19924;-70
2022/09/26 04:05:11;;;;;;;;;;;11.00;99.90;;;;;;5086086;28;20027;-70
2022/09/26 04:07:37;;;;;;;;;;;11.00;99.90;;;;;;5076908;28;19994;-71
2022/09/26 04:10:04;;;;;;;;;;;11.00;99.90;;;;;;5082046;28;20481;-70
2022/09/26 04:12:31;;;;;;;;;;;11.00;99.90;;;;;;5086059;28;19931;-70
2022/09/26 04:14:58;;;;;;;;;;;11.00;99.90;;;;;;5078534;28;19931;-69
2022/09/26 04:17:25;;;;;;;;;;;11.00;99.90;;;;;;5087101;28;19959;-70
2022/09/26 04:19:52;;;;;;;;;;;11.00;99.90;;;;;;5079199;28;19924;-70
2022/09/26 04:22:19;;;;;;;;;;;11.00;99.90;;;;;;5083553;28;19923;-70
2022/09/26 04:24:45;;;;;;;;;;;11.00;99.90;;;;;;5085954;28;19944;-70
2022/09/26 04:27:12;;;;;;;;;;;11.00;99.90;;;;;;5087106;28;20019;-70
2022/09/26 04:29:39;;;;;;;;;;;11.00;99.90;;;;;;5081295;28;20464;-70
2022/09/26 04:32:05;;;;;;;;;;;11.00;99.90;;;;;;5087175;28;19970;-70
2022/09/26 04:34:33;;;;;;;;;;;11.00;99.90;;;;;;5083100;28;19942;-69
2022/09/26 04:37:01;;;;;;;;;;;11.00;99.90;;;;;;5079332;28;19935;-70
2022/09/26 04:39:28;;;;;;;;;;;11.00;99.90;;;;;;5083569;28;20011;-70
2022/09/26 04:41:54;;;;;;;;;;;11.00;99.90;;;;;;5080189;28;20466;-69
2022/09/26 04:44:21;;;;;;;;;;;11.00;99.90;;;;;;5087730;28;19924;-70
2022/09/26 04:46:48;;;;;;;;;;;11.00;99.90;;;;;;5087601;28;19967;-70
2022/09/26 04:49:14;;;;;;;;;;;11.10;99.90;;;;;;5081490;28;19931;-70
2022/09/26 04:51:43;;;;;;;;;;;11.00;99.90;;;;;;5076108;28;19924;-70
2022/09/26 04:54:09;;;;;;;;;;;11.10;99.90;;;;;;5094017;28;19971;-70
2022/09/26 04:56:36;;;;;;;;;;;11.10;99.90;;;;;;5090188;28;19971;-70
2022/09/26 04:59:03;;;;;;;;;;;11.10;99.90;;;;;;5091030;28;20383;-70
2022/09/26 05:01:29;;;;;;;;;;;11.10;99.90;;;;;;5083468;28;20011;-70
2022/09/26 05:03:57;;;;;;;;;;;11.10;99.90;;;;;;5076289;28;19924;-69
2022/09/26 05:06:23;;;;;;;;;;;11.10;99.90;;;;;;5074530;28;19967;-69
2022/09/26 05:08:52;;;;;;;;;;;11.10;99.90;;;;;;5076125;28;19979;-70
2022/09/26 05:11:20;;;;;;;;;;;11.10;99.90;;;;;;5074349;28;19925;-70
2022/09/26 05:13:50;;;;;;;;;;;11.10;99.90;;;;;;5080298;28;19986;-68
2022/09/26 05:16:18;;;;;;;;;;;11.10;99.90;;;;;;5089052;28;19924;-68
2022/09/26 05:18:44;;;;;;;;;;;11.10;99.90;;;;;;5089729;28;20010;-70
2022/09/26 05:21:11;;;;;;;;;;;11.10;99.90;;;;;;5094541;28;20024;-71
2022/09/26 05:26:40;;;;;;;;;;;11.20;99.90;;;;;;4993072;28;20393;-70
2022/09/26 05:29:08;;;;;;;;;;;11.30;99.90;;;;;;5002921;28;19934;-70
2022/09/26 05:31:36;;;;;;;;;;;11.30;99.90;;;;;;5040976;28;20268;-70
2022/09/26 05:34:03;;;;;;;;;;;11.30;99.90;;;;;;5083510;28;19961;-70
2022/09/26 05:36:30;;;;;;;;;;;11.30;99.90;;;;;;5084016;28;19925;-71
2022/09/26 05:38:56;;;;;;;;;;;11.30;99.90;;;;;;5087564;28;20006;-70
2022/09/26 05:41:22;;;;;;;;;;;11.30;99.90;;;;;;5093755;28;19924;-71
2022/09/26 05:43:50;;;;;;;;;;;11.30;99.90;;;;;;5077639;28;20347;-70
2022/09/26 05:46:17;;;;;;;;;;;11.30;99.90;;;;;;5086543;28;19924;-70
2022/09/26 05:48:44;;;;;;;;;;;11.30;99.90;;;;;;5088527;28;20020;-70
2022/09/26 05:51:12;;;;;;;;;;;11.30;99.90;;;;;;5092078;28;19928;-71
2022/09/26 05:53:39;;;;;;;;;;;11.30;99.90;;;;;;5077054;28;19931;-71
2022/09/26 05:56:06;;;;;;;;;;;11.30;99.90;;;;;;5074982;28;20383;-71
2022/09/26 05:58:33;;;;;;;;;;;11.30;99.90;;;;;;5080290;28;19932;-71
2022/09/26 06:01:05;;;;;;;;;;;11.30;99.90;;;;;;5086878;28;19924;-71
2022/09/26 06:03:34;;;;;;;;;;;11.30;99.90;;;;;;5079670;28;19934;-71
2022/09/26 06:06:01;;;;;;;;;;;11.30;99.90;;;;;;5081748;28;19924;-70
2022/09/26 06:08:28;;;;;;;;;;;11.30;99.90;;;;;;5087175;28;19932;-72
2022/09/26 06:10:58;;;;;;;;;;;11.30;99.90;;;;;;5078705;28;19925;-70
2022/09/26 06:13:25;;;;;;;;;;;11.30;99.90;;;;;;5086872;28;19928;-70
2022/09/26 06:15:52;;;;;;;;;;;11.40;99.90;;;;;;5086389;28;19928;-71
2022/09/26 06:18:20;;;;;;;;;;;11.40;99.90;;;;;;5084511;28;20019;-71
2022/09/26 06:20:47;;;;;;;;;;;11.40;99.90;;;;;;5089491;28;20444;-71
2022/09/26 06:23:13;;;;;;;;;;;11.40;99.90;;;;;;5091478;28;19924;-71
2022/09/26 06:25:40;;;;;;;;;;;11.40;99.90;;;;;;5083974;28;19939;-71
2022/09/26 06:28:07;;;;;;;;;;;11.40;99.90;;;;;;5073323;28;19963;-70
2022/09/26 06:30:34;;;;;;;;;;;11.40;99.90;;;;;;5079587;28;19930;-72
2022/09/26 06:33:00;;;;;;;;;;;11.40;99.90;;;;;;5091011;28;19924;-68
2022/09/26 06:35:29;;;;;;;;;;;11.40;99.90;;;;;;5080946;28;19938;-69
2022/09/26 06:37:57;;;;;;;;;;;11.40;99.90;;;;;;5088715;28;19925;-69
2022/09/26 06:40:24;;;;;;;;;;;11.40;99.90;;;;;;5085556;28;19924;-70
2022/09/26 06:42:51;;;;;;;;;;;11.40;99.90;;;;;;5087701;28;19924;-70
2022/09/26 06:45:17;;;;;;;;;;;11.50;99.90;;;;;;5087622;28;20031;-68
2022/09/26 06:47:46;;;;;;;;;;;11.40;99.90;;;;;;5086456;28;20011;-69
2022/09/26 06:50:13;;;;;;;;;;;11.40;99.90;;;;;;5087104;28;19928;-69
2022/09/26 06:52:42;;;;;;;;;;;11.50;99.90;;;;;;5081436;28;19924;-70
2022/09/26 06:55:10;;;;;;;;;;;11.50;99.90;;;;;;5079774;28;19924;-70
2022/09/26 06:57:38;;;;;;;;;;;11.50;99.90;;;;;;5084767;28;19954;-70
2022/09/26 07:00:06;;;;;;;;;;;11.60;99.90;;;;;;5080784;28;19924;-70
2022/09/26 07:02:33;;;;;;;;;;;11.60;99.90;;;;;;5080995;28;19951;-69
2022/09/26 07:05:01;;;;;;;;;;;11.60;99.90;;;;;;5080485;28;19956;-71
2022/09/26 07:07:28;;;;;;;;;;;11.60;99.90;;;;;;5084500;28;19924;-70
2022/09/26 07:09:56;;;;;;;;;;;11.60;99.90;;;;;;5077839;28;20007;-70
2022/09/26 07:12:23;;;;;;;;;;;11.70;99.90;;;;;;5079381;28;19924;-70
2022/09/26 07:14:50;;;;;;;;;;;11.70;99.90;;;;;;5083207;28;19932;-70
2022/09/26 07:17:17;;;;;;;;;;;11.70;99.90;;;;;;5084655;28;19944;-69
2022/09/26 07:19:45;;;;;;;;;;;11.70;99.90;;;;;;5082861;28;20011;-70
2022/09/26 07:22:14;;;;;;;;;;;11.80;99.90;;;;;;5081391;28;19923;-69
2022/09/26 07:24:43;;;;;;;;;;;11.80;99.90;;;;;;5081838;28;20336;-70
2022/09/26 07:27:11;;;;;;;;;;;11.80;99.90;;;;;;5084658;28;19931;-69
2022/09/26 07:29:38;;;;;;;;;;;11.90;99.90;;;;;;5084296;28;19928;-70
2022/09/26 07:32:05;;;;;;;;;;;11.90;99.90;;;;;;5087005;28;19925;-69
2022/09/26 07:34:31;;;;;;;;;;;11.80;99.90;;;;;;5082233;28;19930;-70
2022/09/26 07:36:59;;;;;;;;;;;11.80;99.90;;;;;;5084318;28;20000;-70
2022/09/26 07:39:26;;;;;;;;;;;11.80;99.90;;;;;;5082735;28;20302;-69
2022/09/26 07:41:52;;;;;;;;;;;11.80;99.90;;;;;;5080978;28;19939;-70
2022/09/26 07:44:20;;;;;;;;;;;11.80;99.90;;;;;;5079943;28;19931;-70
2022/09/26 07:52:21;;;;;;;;;;;12.00;99.90;;;;;;5078202;28;19943;-70
2022/09/26 07:54:48;;;;;;;;;;;12.20;99.90;;;;;;5084771;28;19924;-70
2022/09/26 07:57:15;;;;;;;;;;;12.30;99.90;;;;;;5084864;28;19930;-70
2022/09/26 07:59:44;;;;;;;;;;;12.30;99.90;;;;;;5087459;28;19924;-71
2022/09/26 08:02:20;;;;;;;;;;;12.40;99.90;;;;;;5092061;28;20382;-71
2022/09/26 08:04:46;;;;;;;;;;;12.50;99.90;;;;;;5090086;28;19924;-72
2022/09/26 08:07:13;;;;;;;;;;;12.50;99.90;;;;;;5092282;28;19931;-70
2022/09/26 08:09:40;;;;;;;;;;;12.50;99.90;;;;;;5087562;28;19931;-71
2022/09/26 08:12:07;;;;;;;;;;;12.40;99.90;;;;;;5085669;28;19924;-71
2022/09/26 08:14:33;;;;;;;;;;;12.50;99.90;;;;;;5086321;28;19924;-69
2022/09/26 08:17:01;;;;;;;;;;;12.50;99.90;;;;;;5085215;28;19974;-70
2022/09/26 08:19:28;;;;;;;;;;;12.60;99.90;;;;;;5089034;28;19931;-71
2022/09/26 08:21:55;;;;;;;;;;;12.50;99.90;;;;;;5081772;28;20023;-71
2022/09/26 08:24:21;;;;;;;;;;;12.50;99.90;;;;;;5081432;28;19924;-70
2022/09/26 08:26:48;;;;;;;;;;;12.50;99.90;;;;;;5081005;28;19930;-71
2022/09/26 08:29:15;;;;;;;;;;;12.60;99.90;;;;;;5082894;28;19925;-71
2022/09/26 08:31:41;;;;;;;;;;;12.60;99.90;;;;;;5081845;28;20003;-71
2022/09/26 08:34:09;;;;;;;;;;;12.60;99.90;;;;;;5088560;28;20010;-70
2022/09/26 08:36:36;;;;;;;;;;;12.60;99.90;;;;;;5086560;28;19924;-73
2022/09/26 08:39:03;;;;;;;;;;;12.60;99.90;;;;;;5089867;28;19971;-72
2022/09/26 08:41:48;;;;;;;;;;;12.60;99.90;;;;;;5082738;28;19931;-72
2022/09/26 08:44:25;;;;;;;;;;;12.60;99.90;;;;;;5077019;28;19924;-71
2022/09/26 08:46:58;;;;;;;;;;;12.60;99.90;;;;;;5085451;28;20426;-71
2022/09/26 08:49:38;;;;;;;;;;;12.60;99.90;;;;;;5086415;28;19928;-71
2022/09/26 08:52:06;;;;;;;;;;;12.60;99.90;;;;;;5084021;28;19932;-71
2022/09/26 08:54:35;;;;;;;;;;;12.50;99.90;;;;;;5092585;28;19986;-72
2022/09/26 08:57:04;;;;;;;;;;;12.50;99.90;;;;;;5090859;28;20014;-71
2022/09/26 08:59:34;;;;;;;;;;;12.50;99.90;;;;;;5086859;28;20016;-71
2022/09/26 09:02:03;;;;;;;;;;;12.40;99.90;;;;;;5080878;28;19925;-71
2022/09/26 09:04:34;;;;;;;;;;;12.40;99.90;;;;;;5092063;28;19924;-71
2022/09/26 09:07:05;;;;;;;;;;;12.30;99.90;;;;;;5092251;28;19978;-71
2022/09/26 09:09:32;;;;;;;;;;;12.30;99.90;;;;;;5088835;28;19946;-73
2022/09/26 09:12:05;;;;;;;;;;;12.30;99.90;;;;;;5091136;28;19924;-71
2022/09/26 09:14:40;;;;;;;;;;;12.30;99.90;;;;;;5090102;28;19924;-71
2022/09/26 09:17:12;;;;;;;;;;;12.20;99.90;;;;;;5092587;28;19947;-71
2022/09/26 09:19:45;;;;;;;;;;;12.20;99.90;;;;;;5090038;28;20012;-70
2022/09/26 09:22:25;;;;;;;;;;;12.10;99.90;;;;;;5092072;28;20025;-71
2022/09/26 09:24:58;;;;;;;;;;;12.20;99.90;;;;;;5085502;28;19962;-69
2022/09/26 09:27:31;;;;;;;;;;;12.20;99.90;;;;;;5087639;28;20332;-70
2022/09/26 09:30:03;;;;;;;;;;;12.20;99.90;;;;;;5075090;28;19931;-71
2022/09/26 09:32:32;;;;;;;;;;;12.30;99.90;;;;;;5086813;28;20357;-71
2022/09/26 09:34:58;;;;;;;;;;;12.30;99.90;;;;;;5076675;28;20397;-70
2022/09/26 09:37:30;;;;;;;;;;;12.30;99.90;;;;;;5084369;28;20387;-71
2022/09/26 09:39:57;;;;;;;;;;;12.30;99.90;;;;;;5080808;28;19925;-70
2022/09/26 09:42:27;;;;;;;;;;;12.20;99.90;;;;;;5081165;28;20011;-70
2022/09/26 09:44:55;;;;;;;;;;;12.30;99.90;;;;;;5087388;28;20022;-69
2022/09/26 09:47:22;;;;;;;;;;;12.30;99.90;;;;;;5088193;28;19924;-69
2022/09/26 09:49:49;;;;;;;;;;;12.30;99.90;;;;;;5082339;28;19972;-71
2022/09/26 09:52:37;;;;;;;;;;;12.30;99.90;;;;;;5086659;28;20353;-70
2022/09/26 09:55:12;;;;;;;;;;;12.20;99.90;;;;;;5087435;28;19932;-70
2022/09/26 09:58:00;;;;;;;;;;;12.10;99.90;;;;;;5077285;28;19924;-71
2022/09/26 10:00:28;;;;;;;;;;;12.10;99.90;;;;;;5043219;28;20329;-73
2022/09/26 10:02:59;;;;;;;;;;;12.00;99.90;;;;;;5086001;28;20330;-71
2022/09/26 10:05:34;;;;;;;;;;;12.00;99.90;;;;;;5087072;28;19932;-70
2022/09/26 10:08:04;;;;;;;;;;;11.90;99.90;;;;;;5081634;28;19930;-70
2022/09/26 10:10:37;;;;;;;;;;;11.90;99.90;;;;;;5089915;28;19928;-71
2022/09/26 10:13:05;;;;;;;;;;;12.00;99.90;;;;;;5082076;28;19924;-70
2022/09/26 10:15:33;;;;;;;;;;;11.90;99.90;;;;;;5089768;28;19930;-69
2022/09/26 10:18:04;;;;;;;;;;;11.80;99.90;;;;;;5083706;28;19938;-70
2022/09/26 10:20:35;;;;;;;;;;;11.80;99.90;;;;;;5082366;28;19932;-69
2022/09/26 10:23:09;;;;;;;;;;;11.90;99.90;;;;;;5078034;28;20031;-70
2022/09/26 10:25:36;;;;;;;;;;;11.80;99.90;;;;;;5083643;28;19929;-70
2022/09/26 10:28:04;;;;;;;;;;;11.90;99.90;;;;;;5090140;28;19931;-69
2022/09/26 10:30:33;;;;;;;;;;;11.90;99.90;;;;;;5087576;28;19924;-70
2022/09/26 10:33:00;;;;;;;;;;;11.90;99.90;;;;;;5089599;28;19923;-71
2022/09/26 10:35:28;;;;;;;;;;;12.00;99.90;;;;;;5092048;28;20314;-70
2022/09/26 10:37:59;;;;;;;;;;;12.00;99.90;;;;;;5087797;28;20668;-70
2022/09/26 10:40:47;;;;;;;;;;;12.00;99.90;;;;;;5076090;28;19960;-70
2022/09/26 10:43:29;;;;;;;;;;;12.00;99.90;;;;;;5085744;28;19947;-70
2022/09/26 10:46:02;;;;;;;;;;;11.90;99.90;;;;;;5084884;28;19970;-70
2022/09/26 10:48:36;;;;;;;;;;;12.00;99.90;;;;;;5089332;28;20015;-70
2022/09/26 10:51:04;;;;;;;;;;;12.00;99.90;;;;;;5090201;28;19960;-70
2022/09/26 10:53:33;;;;;;;;;;;12.00;99.90;;;;;;5088644;28;19964;-70
2022/09/26 10:56:05;;;;;;;;;;;11.90;99.90;;;;;;5080783;28;20359;-71
2022/09/26 10:58:38;;;;;;;;;;;11.90;99.90;;;;;;5083974;28;19931;-70
2022/09/26 11:01:05;;;;;;;;;;;12.00;99.90;;;;;;5084776;28;19970;-70
2022/09/26 11:03:33;;;;;;;;;;;12.10;99.90;;;;;;5087913;28;20015;-70
2022/09/26 11:06:01;;;;;;;;;;;12.10;99.90;;;;;;5089639;28;19931;-70
2022/09/26 11:08:28;;;;;;;;;;;12.00;99.90;;;;;;5088792;28;19924;-70
2022/09/26 11:10:56;;;;;;;;;;;12.10;99.90;;;;;;5089913;28;19935;-70
2022/09/26 11:13:25;;;;;;;;;;;12.20;99.90;;;;;;5090243;28;19964;-71
2022/09/26 11:15:52;;;;;;;;;;;12.30;99.90;;;;;;5085225;28;20011;-70
2022/09/26 11:18:20;;;;;;;;;;;12.20;99.90;;;;;;5090024;28;19954;-70
2022/09/26 11:20:49;;;;;;;;;;;12.30;99.90;;;;;;5091422;28;19924;-71
2022/09/26 11:23:19;;;;;;;;;;;12.30;99.90;;;;;;5086286;28;20003;-72
2022/09/26 11:25:53;;;;;;;;;;;12.20;99.90;;;;;;5089574;28;20018;-71
2022/09/26 11:28:23;;;;;;;;;;;12.20;99.90;;;;;;5089239;28;19924;-70
2022/09/26 11:30:55;;;;;;;;;;;12.20;99.90;;;;;;5089128;28;20016;-69
2022/09/26 11:33:23;;;;;;;;;;;12.30;99.90;;;;;;5071311;28;19925;-70
2022/09/26 11:35:57;;;;;;;;;;;12.40;99.90;;;;;;5071647;28;20464;-72
2022/09/26 11:38:37;;;;;;;;;;;12.50;99.90;;;;;;5071452;28;20023;-70
2022/09/26 11:41:13;;;;;;;;;;;12.40;99.90;;;;;;5088603;28;19924;-70
2022/09/26 11:43:51;;;;;;;;;;;12.30;99.90;;;;;;5092236;28;20006;-71
2022/09/26 11:46:27;;;;;;;;;;;12.30;99.90;;;;;;5092356;28;20027;-71
2022/09/26 11:49:09;;;;;;;;;;;12.20;99.90;;;;;;5090645;28;19950;-70
2022/09/26 11:51:42;;;;;;;;;;;12.20;99.90;;;;;;5074864;28;19933;-70
2022/09/26 11:54:23;;;;;;;;;;;12.20;99.90;;;;;;5081870;28;19925;-70
2022/09/26 11:56:56;;;;;;;;;;;12.20;99.90;;;;;;5086054;28;20003;-71
2022/09/26 11:59:30;;;;;;;;;;;12.30;99.90;;;;;;5084887;28;19924;-72
2022/09/26 12:02:11;;;;;;;;;;;12.30;99.90;;;;;;5079598;28;19930;-71
2022/09/26 12:04:49;;;;;;;;;;;12.30;99.90;;;;;;5086284;28;19928;-71
2022/09/26 12:07:19;;;;;;;;;;;12.40;99.90;;;;;;5088090;28;19928;-71
2022/09/26 12:10:05;;;;;;;;;;;12.50;99.90;;;;;;5087287;28;20402;-71
2022/09/26 12:12:40;;;;;;;;;;;12.50;99.90;;;;;;5087948;28;19966;-73
2022/09/26 12:15:13;;;;;;;;;;;12.60;99.90;;;;;;5091071;28;19926;-70
2022/09/26 12:17:50;;;;;;;;;;;12.70;99.90;;;;;;5088168;28;19924;-71
2022/09/26 12:20:23;;;;;;;;;;;12.70;99.90;;;;;;5076411;28;19925;-71
2022/09/26 12:22:52;;;;;;;;;;;12.70;99.90;;;;;;5088689;28;19930;-71
2022/09/26 12:25:24;;;;;;;;;;;12.80;99.90;;;;;;5087997;28;19952;-70
2022/09/26 12:27:58;;;;;;;;;;;12.90;99.90;;;;;;5074798;28;19925;-72
2022/09/26 12:30:26;;;;;;;;;;;12.80;99.90;;;;;;5088349;28;20019;-71
2022/09/26 12:33:01;;;;;;;;;;;12.80;99.90;;;;;;5087128;28;19957;-71
2022/09/26 12:35:41;;;;;;;;;;;12.90;99.90;;;;;;5081745;28;19924;-72
2022/09/26 12:38:27;;;;;;;;;;;12.90;99.90;;;;;;5086957;28;20362;-71
2022/09/26 12:41:02;;;;;;;;;;;13.00;99.90;;;;;;5080884;28;19932;-70
2022/09/26 12:43:46;;;;;;;;;;;12.90;99.90;;;;;;5081184;28;19932;-69
2022/09/26 12:46:26;;;;;;;;;;;12.90;99.90;;;;;;5086201;28;19960;-70
2022/09/26 12:49:00;;;;;;;;;;;12.80;99.90;;;;;;5090694;28;20727;-70
2022/09/26 12:51:35;;;;;;;;;;;12.60;99.90;;;;;;5090845;28;19925;-70
2022/09/26 12:54:13;;;;;;;;;;;12.50;99.90;;;;;;5083589;28;20011;-70
2022/09/26 12:56:45;;;;;;;;;;;12.50;99.90;;;;;;5093651;28;19928;-70
2022/09/26 12:59:21;;;;;;;;;;;12.40;99.90;;;;;;5090706;28;20160;-70
2022/09/26 13:02:05;;;;;;;;;;;12.40;99.90;;;;;;5085264;28;19924;-70
2022/09/26 13:04:40;;;;;;;;;;;12.40;99.90;;;;;;5086999;28;19970;-71
2022/09/26 13:07:17;;;;;;;;;;;12.40;99.90;;;;;;5092554;28;19924;-70
2022/09/26 13:09:53;;;;;;;;;;;12.30;99.90;;;;;;5092400;28;19931;-70
2022/09/26 13:12:29;;;;;;;;;;;12.30;99.90;;;;;;5082132;28;20446;-70
2022/09/26 13:15:01;;;;;;;;;;;12.40;99.90;;;;;;5094642;28;19928;-71
2022/09/26 13:17:30;;;;;;;;;;;12.40;99.90;;;;;;5084201;28;20375;-71
2022/09/26 13:20:00;;;;;;;;;;;12.40;99.90;;;;;;5085862;28;19924;-71
2022/09/26 13:22:33;;;;;;;;;;;12.60;99.90;;;;;;5089949;28;20450;-70
2022/09/26 13:25:04;;;;;;;;;;;12.50;99.90;;;;;;5086002;28;19924;-71
2022/09/26 13:27:37;;;;;;;;;;;12.40;99.90;;;;;;5093508;28;19924;-72
2022/09/26 13:30:08;;;;;;;;;;;12.40;99.90;;;;;;5094138;28;20306;-74
2022/09/26 13:32:41;;;;;;;;;;;12.40;99.90;;;;;;5092814;28;20460;-70
2022/09/26 13:35:15;;;;;;;;;;;12.40;99.90;;;;;;5092605;28;19924;-69
2022/09/26 13:37:52;;;;;;;;;;;12.30;99.90;;;;;;5085403;28;19954;-70
2022/09/26 13:40:24;;;;;;;;;;;12.30;99.90;;;;;;5090492;28;19931;-71
2022/09/26 13:42:57;;;;;;;;;;;12.20;99.90;;;;;;5084717;28;19930;-72
2022/09/26 13:45:26;;;;;;;;;;;12.20;99.90;;;;;;5090843;28;19924;-71
2022/09/26 13:47:56;;;;;;;;;;;12.20;99.90;;;;;;5086078;28;19932;-71
2022/09/26 13:50:27;;;;;;;;;;;12.20;99.90;;;;;;5090507;28;20010;-72
2022/09/26 13:53:01;;;;;;;;;;;12.20;99.90;;;;;;5085272;28;20023;-71
2022/09/26 13:55:28;;;;;;;;;;;12.20;99.90;;;;;;5077132;28;20410;-71
2022/09/26 13:58:03;;;;;;;;;;;12.20;99.90;;;;;;5092652;28;19931;-68
2022/09/26 14:00:40;;;;;;;;;;;12.20;99.90;;;;;;5093348;28;19928;-72
2022/09/26 14:03:26;;;;;;;;;;;12.20;99.90;;;;;;5092709;28;19967;-71
2022/09/26 14:06:06;;;;;;;;;;;12.20;99.90;;;;;;5080838;28;19936;-72
2022/09/26 14:11:27;;;;;;;;;;;12.30;99.90;;;;;;5090641;28;20034;-70
2022/09/26 14:14:18;;;;;;;;;;;12.20;99.90;;;;;;5076394;28;20073;-72
2022/09/26 14:16:45;;;;;;;;;;;12.30;99.90;;;;;;5000611;28;20416;-71
2022/09/26 14:19:13;;;;;;;;;;;12.30;99.90;;;;;;5078535;28;19924;-70
2022/09/26 14:21:45;;;;;;;;;;;12.30;99.90;;;;;;5092683;28;19928;-70
2022/09/26 14:24:29;;;;;;;;;;;12.40;99.90;;;;;;5092944;28;19979;-71
2022/09/26 14:27:14;;;;;;;;;;;12.40;99.90;;;;;;5072954;28;19943;-70
2022/09/26 14:29:47;;;;;;;;;;;12.40;99.90;;;;;;5078147;28;19924;-69
2022/09/26 14:32:15;;;;;;;;;;;12.40;99.90;;;;;;5080633;28;19971;-69
2022/09/26 14:34:42;;;;;;;;;;;12.40;99.90;;;;;;5084197;28;20282;-70
2022/09/26 14:37:24;;;;;;;;;;;12.60;99.90;;;;;;5084859;28;20310;-70
2022/09/26 14:39:52;;;;;;;;;;;12.70;99.90;;;;;;5079778;28;19924;-71
2022/09/26 14:42:23;;;;;;;;;;;12.80;99.90;;;;;;5087779;28;19924;-71
2022/09/26 14:44:57;;;;;;;;;;;12.80;99.90;;;;;;5077320;28;19924;-71
2022/09/26 14:47:24;;;;;;;;;;;12.70;99.90;;;;;;5087543;28;19924;-71